createdAt,value
2023-04-10T00:01:13.266Z,38.13
2023-04-10T00:03:40.090Z,37.90
2023-04-10T00:06:07.481Z,37.65
2023-04-10T00:08:34.115Z,38.47
2023-04-10T00:11:00.803Z,39.85
2023-04-10T00:13:27.425Z,38.05
2023-04-10T00:15:54.056Z,39.85
2023-04-10T00:18:20.773Z,38.85
2023-04-10T00:20:47.362Z,37.35
2023-04-10T00:23:14.364Z,36.70
2023-04-10T00:25:40.961Z,38.65
2023-04-10T00:28:07.531Z,40.22
2023-04-10T00:30:34.146Z,41.97
2023-04-10T00:33:01.111Z,37.40
2023-04-10T00:35:27.985Z,40.83
2023-04-10T00:37:56.232Z,41.47
2023-04-10T00:40:23.059Z,41.67
2023-04-10T00:42:49.819Z,40.63
2023-04-10T00:45:16.482Z,39.88
2023-04-10T00:47:43.244Z,39.45
2023-04-10T00:50:10.538Z,41.53
2023-04-10T00:52:37.522Z,37.47
2023-04-10T00:55:04.588Z,41.30
2023-04-10T00:57:32.115Z,42.25
2023-04-10T00:59:58.827Z,40.85
2023-04-10T01:02:25.884Z,39.40
2023-04-10T01:04:53.036Z,40.33
2023-04-10T01:07:29.586Z,40.83
2023-04-10T01:10:01.975Z,38.33
2023-04-10T01:13:05.691Z,38.13
2023-04-10T01:15:42.284Z,42.05
2023-04-10T01:18:22.737Z,40.17
2023-04-10T01:20:49.404Z,37.28
2023-04-10T01:23:31.449Z,40.20
2023-04-10T01:26:04.113Z,41.05
2023-04-10T01:28:56.049Z,38.30
2023-04-10T01:31:28.537Z,37.72
2023-04-10T01:34:01.967Z,39.42
2023-04-10T01:36:34.857Z,39.67
2023-04-10T01:39:02.209Z,38.42
2023-04-10T01:41:29.459Z,39.33
2023-04-10T01:43:59.033Z,39.40
2023-04-10T01:46:28.543Z,39.15
2023-04-10T01:48:56.645Z,36.67
2023-04-10T01:51:24.078Z,38.63
2023-04-10T01:53:51.970Z,36.95
2023-04-10T01:56:23.801Z,38.53
2023-04-10T01:58:50.984Z,37.90
2023-04-10T02:01:28.910Z,37.45
2023-04-10T02:03:56.756Z,37.40
2023-04-10T02:06:49.577Z,38.63
2023-04-10T02:09:27.214Z,35.33
2023-04-10T02:12:07.067Z,37.28
2023-04-10T02:14:37.930Z,38.45
2023-04-10T02:17:04.636Z,35.45
2023-04-10T02:19:32.996Z,39.28
2023-04-10T02:21:59.971Z,37.88
2023-04-10T02:24:27.322Z,37.97
2023-04-10T02:26:54.058Z,36.70
2023-04-10T02:29:21.304Z,36.42
2023-04-10T02:31:49.659Z,35.72
2023-04-10T02:34:16.513Z,37.30
2023-04-10T02:36:43.161Z,36.67
2023-04-10T02:39:12.237Z,36.42
2023-04-10T02:41:47.388Z,36.30
2023-04-10T02:44:14.354Z,37.05
2023-04-10T02:46:41.887Z,37.40
2023-04-10T02:49:08.663Z,36.97
2023-04-10T02:51:36.418Z,37.35
2023-04-10T02:54:04.418Z,37.90
2023-04-10T02:56:34.839Z,35.65
2023-04-10T02:59:02.029Z,34.53
2023-04-10T03:01:29.943Z,36.80
2023-04-10T03:03:58.059Z,38.08
2023-04-10T03:06:28.464Z,38.92
2023-04-10T03:08:57.277Z,36.53
2023-04-10T03:11:24.015Z,39.08
2023-04-10T03:13:51.264Z,37.72
2023-04-10T03:16:18.891Z,35.50
2023-04-10T03:18:46.489Z,37.70
2023-04-10T03:21:13.931Z,37.75
2023-04-10T03:23:40.560Z,38.25
2023-04-10T03:26:08.465Z,37.70
2023-04-10T03:28:38.022Z,39.70
2023-04-10T03:31:06.021Z,38.88
2023-04-10T03:33:35.807Z,38.03
2023-04-10T03:36:04.303Z,39.72
2023-04-10T03:38:32.985Z,39.20
2023-04-10T03:40:59.651Z,39.47
2023-04-10T03:43:30.651Z,40.22
2023-04-10T03:45:57.996Z,38.58
2023-04-10T03:48:27.982Z,39.72
2023-04-10T03:50:55.353Z,41.85
2023-04-10T03:53:22.633Z,39.47
2023-04-10T03:55:52.089Z,40.67
2023-04-10T03:58:19.139Z,40.67
2023-04-10T04:00:46.627Z,39.45
2023-04-10T04:03:24.122Z,39.17
2023-04-10T04:05:53.818Z,40.38
2023-04-10T04:08:40.722Z,38.72
2023-04-10T04:11:21.560Z,37.58
2023-04-10T04:13:58.418Z,38.03
2023-04-10T04:16:43.856Z,39.50
2023-04-10T04:19:33.331Z,39.40
2023-04-10T04:24:53.372Z,39.10
2023-04-10T04:27:42.993Z,39.60
2023-04-10T04:30:28.422Z,39.95
2023-04-10T04:33:09.480Z,41.72
2023-04-10T04:36:05.662Z,41.22
2023-04-10T04:38:52.562Z,41.05
2023-04-10T04:41:32.364Z,40.95
2023-04-10T04:44:19.649Z,41.25
2023-04-10T04:47:06.520Z,37.78
2023-04-10T04:49:41.769Z,39.05
2023-04-10T04:52:19.213Z,37.45
2023-04-10T04:55:02.832Z,38.88
2023-04-10T04:57:53.084Z,39.13
2023-04-10T05:00:33.972Z,35.75
2023-04-10T05:03:07.260Z,34.10
2023-04-10T05:05:58.113Z,31.45
2023-04-10T05:08:33.398Z,29.33
2023-04-10T05:11:07.659Z,28.17
2023-04-10T05:13:53.175Z,30.02
2023-04-10T05:16:33.504Z,29.25
2023-04-10T05:19:06.133Z,29.00
2023-04-10T05:21:47.699Z,30.17
2023-04-10T05:24:33.505Z,28.75
2023-04-10T05:27:21.991Z,29.10
2023-04-10T05:30:18.025Z,31.15
2023-04-10T05:33:03.453Z,34.33
2023-04-10T05:35:48.840Z,32.70
2023-04-10T05:38:25.444Z,33.10
2023-04-10T05:41:12.026Z,32.38
2023-04-10T05:43:58.900Z,31.42
2023-04-10T05:46:45.925Z,32.88
2023-04-10T05:49:31.447Z,32.85
2023-04-10T05:52:14.614Z,34.97
2023-04-10T05:55:09.526Z,33.95
2023-04-10T05:57:42.203Z,34.20
2023-04-10T06:00:23.770Z,34.28
2023-04-10T06:03:30.544Z,34.28
2023-04-10T06:06:02.545Z,36.08
2023-04-10T06:08:30.663Z,35.67
2023-04-10T06:10:57.282Z,38.88
2023-04-10T06:13:24.813Z,38.67
2023-04-10T06:15:55.250Z,38.42
2023-04-10T06:18:22.205Z,39.83
2023-04-10T06:20:48.859Z,40.05
2023-04-10T06:23:15.903Z,39.28
2023-04-10T06:25:43.759Z,37.78
2023-04-10T06:28:10.747Z,38.25
2023-04-10T06:30:37.459Z,37.20
2023-04-10T06:33:06.604Z,39.17
2023-04-10T06:35:36.407Z,40.13
2023-04-10T06:38:03.762Z,39.10
2023-04-10T06:40:34.103Z,38.03
2023-04-10T06:43:01.341Z,38.90
2023-04-10T06:45:34.656Z,39.20
2023-04-10T06:48:01.425Z,38.65
2023-04-10T06:50:28.182Z,39.85
2023-04-10T06:52:56.247Z,39.22
2023-04-10T06:55:22.891Z,35.88
2023-04-10T06:57:49.745Z,37.47
2023-04-10T07:00:16.704Z,38.35
2023-04-10T07:02:43.409Z,37.03
2023-04-10T07:05:10.181Z,38.35
2023-04-10T07:07:37.088Z,37.28
2023-04-10T07:10:03.917Z,39.22
2023-04-10T07:12:30.603Z,40.42
2023-04-10T07:14:57.225Z,40.42
2023-04-10T07:17:25.320Z,39.95
2023-04-10T07:19:52.074Z,40.70
2023-04-10T07:22:18.716Z,39.78
2023-04-10T07:24:45.660Z,40.45
2023-04-10T07:27:12.803Z,42.25
2023-04-10T07:29:39.535Z,40.88
2023-04-10T07:32:06.761Z,42.10
2023-04-10T07:34:33.656Z,44.90
2023-04-10T07:37:00.244Z,42.92
2023-04-10T07:39:27.435Z,45.45
2023-04-10T07:41:55.226Z,44.17
2023-04-10T07:44:21.951Z,47.10
2023-04-10T07:46:48.562Z,47.00
2023-04-10T07:49:15.269Z,47.10
2023-04-10T07:51:41.926Z,47.33
2023-04-10T07:54:08.511Z,57.97
2023-04-10T07:56:35.224Z,52.38
2023-04-10T07:59:03.279Z,52.30
2023-04-10T08:01:30.119Z,45.70
2023-04-10T08:03:56.998Z,39.72
2023-04-10T08:06:23.839Z,39.38
2023-04-10T08:08:52.153Z,38.55
2023-04-10T08:11:28.010Z,38.22
2023-04-10T08:13:57.985Z,36.63
2023-04-10T08:16:25.929Z,36.25
2023-04-10T08:18:53.854Z,39.15
2023-04-10T08:21:22.168Z,37.22
2023-04-10T08:23:52.874Z,38.58
2023-04-10T08:26:21.097Z,38.60
2023-04-10T08:28:50.629Z,39.33
2023-04-10T08:31:18.478Z,40.38
2023-04-10T08:33:45.552Z,39.67
2023-04-10T08:36:13.046Z,38.40
2023-04-10T08:38:39.921Z,40.25
2023-04-10T08:41:06.814Z,39.22
2023-04-10T08:43:34.547Z,39.22
2023-04-10T08:46:01.843Z,38.25
2023-04-10T08:48:35.840Z,40.50
2023-04-10T08:51:08.881Z,40.90
2023-04-10T08:56:07.541Z,39.25
2023-04-10T08:58:34.359Z,39.22
2023-04-10T09:01:01.651Z,39.33
2023-04-10T09:03:28.481Z,39.55
2023-04-10T09:05:56.615Z,44.90
2023-04-10T09:08:23.238Z,48.65
2023-04-10T09:10:49.842Z,47.30
2023-04-10T09:13:16.703Z,45.88
2023-04-10T09:15:57.429Z,45.45
2023-04-10T09:18:42.951Z,48.33
2023-04-10T09:21:11.565Z,46.63
2023-04-10T09:23:38.339Z,43.83
2023-04-10T09:26:25.968Z,46.38
2023-04-10T09:29:06.778Z,47.00
2023-04-10T09:31:35.098Z,47.75
2023-04-10T09:34:15.322Z,43.88
2023-04-10T09:37:03.027Z,41.30
2023-04-10T09:39:42.898Z,45.13
2023-04-10T09:42:11.410Z,45.80
2023-04-10T09:44:40.008Z,46.30
2023-04-10T09:47:16.029Z,48.08
2023-04-10T09:49:57.316Z,47.63
2023-04-10T09:52:28.122Z,48.80
2023-04-10T09:54:56.784Z,46.58
2023-04-10T09:57:25.753Z,45.78
2023-04-10T09:59:54.699Z,47.38
2023-04-10T10:02:23.764Z,47.50
2023-04-10T10:04:51.716Z,48.50
2023-04-10T10:07:23.503Z,47.75
2023-04-10T10:09:52.310Z,49.50
2023-04-10T10:12:37.003Z,49.53
2023-04-10T10:15:21.875Z,49.30
2023-04-10T10:18:07.890Z,50.63
2023-04-10T10:20:36.820Z,48.80
2023-04-10T10:23:04.233Z,48.42
2023-04-10T10:25:31.375Z,49.17
2023-04-10T10:28:02.611Z,46.03
2023-04-10T10:30:33.818Z,49.75
2023-04-10T10:33:02.090Z,47.30
2023-04-10T10:35:31.837Z,51.20
2023-04-10T10:38:03.100Z,50.97
2023-04-10T10:40:45.957Z,49.33
2023-04-10T10:43:24.482Z,50.58
2023-04-10T10:46:02.351Z,51.00
2023-04-10T10:48:29.195Z,48.38
2023-04-10T10:50:58.943Z,52.35
2023-04-10T10:53:36.375Z,51.92
2023-04-10T10:56:18.243Z,51.95
2023-04-10T10:59:01.748Z,54.58
2023-04-10T11:01:28.663Z,48.58
2023-04-10T11:03:55.807Z,51.40
2023-04-10T11:06:49.795Z,52.05
2023-04-10T11:09:51.601Z,51.10
2023-04-10T11:12:25.229Z,50.50
2023-04-10T11:15:01.071Z,52.80
2023-04-10T11:17:51.540Z,51.80
2023-04-10T11:20:21.728Z,50.53
2023-04-10T11:23:11.569Z,57.17
2023-04-10T11:25:51.251Z,53.03
2023-04-10T11:28:33.338Z,49.58
2023-04-10T11:31:19.590Z,52.95
2023-04-10T11:34:07.961Z,51.70
2023-04-10T11:36:38.280Z,51.03
2023-04-10T11:39:06.323Z,51.28
2023-04-10T11:41:37.459Z,48.65
2023-04-10T11:44:10.313Z,46.75
2023-04-10T11:46:39.158Z,52.05
2023-04-10T11:49:07.390Z,48.78
2023-04-10T11:51:34.120Z,50.22
2023-04-10T11:54:09.392Z,52.00
2023-04-10T11:56:37.537Z,50.03
2023-04-10T11:59:11.303Z,47.15
2023-04-10T12:01:39.956Z,49.85
2023-04-10T12:04:19.632Z,50.08
2023-04-10T12:06:53.803Z,47.92
2023-04-10T12:09:21.381Z,49.27
2023-04-10T12:11:53.718Z,50.25
2023-04-10T12:14:22.216Z,52.30
2023-04-10T12:16:50.003Z,46.70
2023-04-10T12:19:18.276Z,50.95
2023-04-10T12:21:45.900Z,53.45
2023-04-10T12:24:13.083Z,46.05
2023-04-10T12:26:49.420Z,47.70
2023-04-10T12:29:16.521Z,49.78
2023-04-10T12:31:43.558Z,48.33
2023-04-10T12:34:11.303Z,52.25
2023-04-10T12:36:38.133Z,51.72
2023-04-10T12:39:06.028Z,51.40
2023-04-10T12:41:34.251Z,56.28
2023-04-10T12:44:09.500Z,58.35
2023-04-10T12:46:36.622Z,55.78
2023-04-10T12:49:11.579Z,52.38
2023-04-10T12:51:42.625Z,49.70
2023-04-10T12:54:09.350Z,38.72
2023-04-10T12:56:43.879Z,52.95
2023-04-10T12:59:10.716Z,49.50
2023-04-10T13:01:38.920Z,47.55
2023-04-10T13:04:06.013Z,47.55
2023-04-10T13:06:32.706Z,49.10
2023-04-10T13:08:59.732Z,45.45
2023-04-10T13:11:26.298Z,45.92
2023-04-10T13:13:52.958Z,46.50
2023-04-10T13:16:19.597Z,47.08
2023-04-10T13:18:46.337Z,45.60
2023-04-10T13:21:18.239Z,44.55
2023-04-10T13:23:45.148Z,45.97
2023-04-10T13:26:11.816Z,46.90
2023-04-10T13:28:38.392Z,45.00
2023-04-10T13:31:05.530Z,44.00
2023-04-10T13:33:32.178Z,42.70
2023-04-10T13:35:58.872Z,47.03
2023-04-10T13:38:25.647Z,46.45
2023-04-10T13:40:53.366Z,46.42
2023-04-10T13:43:20.053Z,43.88
2023-04-10T13:45:46.775Z,44.20
2023-04-10T13:48:16.048Z,46.03
2023-04-10T13:50:42.706Z,45.67
2023-04-10T13:53:10.180Z,40.60
2023-04-10T13:55:37.864Z,40.50
2023-04-10T13:58:04.651Z,42.22
2023-04-10T14:00:31.475Z,45.88
2023-04-10T14:02:58.446Z,44.97
2023-04-10T14:05:25.343Z,45.83
2023-04-10T14:07:56.634Z,44.30
2023-04-10T14:10:23.969Z,44.40
2023-04-10T14:12:50.607Z,46.95
2023-04-10T14:15:19.016Z,44.03
2023-04-10T14:17:45.734Z,43.65
2023-04-10T14:20:13.188Z,43.60
2023-04-10T14:22:39.825Z,42.97
2023-04-10T14:25:13.082Z,46.40
2023-04-10T14:27:40.568Z,47.13
2023-04-10T14:30:08.057Z,44.28
2023-04-10T14:32:34.716Z,44.05
2023-04-10T14:35:01.509Z,43.38
2023-04-10T14:37:28.098Z,42.25
2023-04-10T14:39:55.457Z,46.40
2023-04-10T14:42:23.549Z,45.78
2023-04-10T14:44:50.468Z,42.80
2023-04-10T14:47:17.170Z,47.75
2023-04-10T14:49:44.193Z,47.13
2023-04-10T14:52:10.893Z,45.92
2023-04-10T14:54:38.020Z,44.70
2023-04-10T14:57:04.784Z,43.90
2023-04-10T14:59:31.769Z,48.35
2023-04-10T15:01:58.639Z,48.28
2023-04-10T15:04:25.680Z,46.65
2023-04-10T15:06:52.675Z,44.25
2023-04-10T15:09:21.355Z,42.50
2023-04-10T15:11:48.584Z,41.45
2023-04-10T15:14:15.317Z,41.78
2023-04-10T15:16:42.025Z,39.88
2023-04-10T15:19:08.710Z,44.47
2023-04-10T15:21:35.311Z,42.05
2023-04-10T15:24:01.978Z,43.85
2023-04-10T15:26:28.612Z,50.15
2023-04-10T15:28:55.218Z,44.05
2023-04-10T15:31:23.338Z,50.42
2023-04-10T15:33:52.070Z,41.53
2023-04-10T15:36:18.867Z,43.83
2023-04-10T15:38:45.640Z,42.65
2023-04-10T15:41:13.384Z,45.45
2023-04-10T15:43:40.177Z,40.17
2023-04-10T15:46:07.030Z,38.22
2023-04-10T15:48:33.921Z,41.97
2023-04-10T15:51:04.973Z,39.55
2023-04-10T15:53:31.684Z,42.38
2023-04-10T15:55:58.534Z,40.92
2023-04-10T15:58:25.271Z,43.80
2023-04-10T16:00:51.930Z,39.05
2023-04-10T16:03:18.820Z,40.83
2023-04-10T16:05:45.521Z,40.25
2023-04-10T16:08:12.098Z,40.33
2023-04-10T16:10:39.107Z,46.28
2023-04-10T16:13:06.795Z,44.45
2023-04-10T16:15:35.606Z,41.72
2023-04-10T16:18:06.399Z,49.42
2023-04-10T16:20:33.471Z,46.78
2023-04-10T16:23:00.399Z,50.63
2023-04-10T16:25:27.903Z,40.17
2023-04-10T16:27:55.731Z,47.40
2023-04-10T16:30:22.644Z,51.80
2023-04-10T16:32:49.329Z,51.70
2023-04-10T16:35:18.022Z,43.03
2023-04-10T16:37:45.774Z,39.90
2023-04-10T16:40:12.562Z,37.38
2023-04-10T16:42:40.039Z,39.05
2023-04-10T16:45:08.265Z,36.45
2023-04-10T16:47:35.198Z,36.22
2023-04-10T16:50:01.954Z,36.40
2023-04-10T16:52:28.616Z,36.28
2023-04-10T16:54:55.497Z,35.65
2023-04-10T16:57:22.285Z,36.05
2023-04-10T16:59:49.045Z,36.47
2023-04-10T17:02:15.718Z,36.97
2023-04-10T17:04:42.370Z,40.10
2023-04-10T17:07:09.424Z,40.80
2023-04-10T17:09:36.171Z,55.30
2023-04-10T17:12:02.805Z,41.85
2023-04-10T17:14:29.568Z,40.80
2023-04-10T17:16:56.507Z,40.97
2023-04-10T17:19:23.205Z,38.08
2023-04-10T17:21:52.035Z,39.13
2023-04-10T17:24:18.634Z,48.05
2023-04-10T17:26:45.341Z,48.65
2023-04-10T17:29:11.943Z,43.67
2023-04-10T17:31:38.709Z,36.67
2023-04-10T17:34:05.322Z,36.58
2023-04-10T17:36:32.426Z,42.40
2023-04-10T17:38:59.882Z,42.35
2023-04-10T17:41:26.891Z,39.08
2023-04-10T17:43:53.560Z,42.72
2023-04-10T17:46:20.220Z,22.95
2023-04-10T17:48:46.930Z,23.60
2023-04-10T17:51:13.643Z,23.00
2023-04-10T17:53:40.421Z,24.02
2023-04-10T17:56:07.635Z,23.52
2023-04-10T17:58:34.277Z,23.52
2023-04-10T18:01:01.093Z,23.27
2023-04-10T18:03:28.233Z,23.52
2023-04-10T18:05:55.094Z,40.20
2023-04-10T18:08:21.732Z,26.77
2023-04-10T18:10:48.504Z,23.00
2023-04-10T18:13:15.211Z,24.48
2023-04-10T18:15:41.910Z,25.40
2023-04-10T18:18:08.594Z,25.08
2023-04-10T18:20:35.508Z,24.98
2023-04-10T18:23:04.685Z,24.77
2023-04-10T18:25:31.377Z,24.95
2023-04-10T18:28:13.629Z,23.67
2023-04-10T18:30:41.679Z,24.27
2023-04-10T18:33:10.882Z,24.17
2023-04-10T18:35:38.066Z,24.73
2023-04-10T18:38:04.906Z,25.27
2023-04-10T18:40:31.617Z,25.30
2023-04-10T18:42:59.547Z,25.40
2023-04-10T18:45:26.158Z,25.05
2023-04-10T18:47:52.879Z,30.85
2023-04-10T18:50:19.504Z,24.05
2023-04-10T18:52:46.110Z,24.90
2023-04-10T18:55:12.821Z,24.70
2023-04-10T18:57:39.520Z,24.15
2023-04-10T19:00:08.125Z,24.30
2023-04-10T19:02:35.105Z,24.60
2023-04-10T19:05:01.870Z,24.67
2023-04-10T19:07:28.592Z,25.63
2023-04-10T19:09:55.238Z,28.20
2023-04-10T19:12:22.510Z,25.50
2023-04-10T19:14:49.106Z,26.15
2023-04-10T19:17:15.836Z,26.05
2023-04-10T19:19:42.809Z,26.92
2023-04-10T19:22:09.455Z,24.30
2023-04-10T19:24:36.143Z,23.50
2023-04-10T19:27:02.767Z,24.50
2023-04-10T19:29:30.863Z,23.42
2023-04-10T19:31:58.016Z,23.90
2023-04-10T19:34:24.612Z,24.60
2023-04-10T19:36:51.303Z,24.38
2023-04-10T19:39:18.325Z,23.23
2023-04-10T19:41:45.023Z,24.58
2023-04-10T19:44:11.984Z,24.17
2023-04-10T19:46:38.765Z,23.60
2023-04-10T19:49:05.488Z,24.00
2023-04-10T19:51:32.265Z,23.17
2023-04-10T19:53:59.192Z,23.52
2023-04-10T19:56:27.597Z,23.85
2023-04-10T19:58:54.221Z,24.17
2023-04-10T20:01:20.939Z,24.65
2023-04-10T20:03:47.733Z,24.75
2023-04-10T20:06:16.279Z,24.42
2023-04-10T20:08:42.988Z,25.35
2023-04-10T20:11:09.773Z,24.30
2023-04-10T20:13:36.587Z,24.80
2023-04-10T20:16:03.291Z,23.48
2023-04-10T20:18:31.421Z,23.90
2023-04-10T20:20:58.067Z,25.52
2023-04-10T20:23:24.668Z,26.92
2023-04-10T20:25:51.389Z,24.27
2023-04-10T20:28:18.561Z,23.42
2023-04-10T20:30:45.260Z,23.65
2023-04-10T20:33:11.996Z,23.33
2023-04-10T20:35:38.869Z,23.50
2023-04-10T20:38:05.641Z,23.42
2023-04-10T20:40:32.534Z,22.20
2023-04-10T20:42:59.213Z,21.38
2023-04-10T20:45:25.893Z,19.35
2023-04-10T20:47:52.618Z,19.10
2023-04-10T20:50:19.494Z,19.85
2023-04-10T20:52:46.227Z,17.45
2023-04-10T20:55:12.902Z,17.23
2023-04-10T20:57:39.779Z,17.70
2023-04-10T21:00:07.154Z,17.00
2023-04-10T21:02:34.137Z,16.73
2023-04-10T21:05:00.920Z,16.02
2023-04-10T21:07:27.949Z,16.00
2023-04-10T21:09:54.662Z,15.20
2023-04-10T21:12:22.630Z,15.30
2023-04-10T21:14:49.391Z,14.98
2023-04-10T21:17:17.715Z,14.50
2023-04-10T21:19:44.468Z,13.55
2023-04-10T21:22:11.348Z,14.75
2023-04-10T21:24:38.130Z,13.57
2023-04-10T21:27:05.096Z,14.95
2023-04-10T21:29:31.777Z,14.73
2023-04-10T21:31:58.460Z,15.15
2023-04-10T21:34:25.452Z,15.05
2023-04-10T21:36:52.084Z,16.77
2023-04-10T21:39:18.835Z,17.70
2023-04-10T21:41:45.585Z,18.88
2023-04-10T21:44:12.493Z,18.60
2023-04-10T21:46:39.123Z,18.40
2023-04-10T21:49:06.755Z,17.40
2023-04-10T21:51:33.509Z,16.38
2023-04-10T21:54:00.197Z,15.43
2023-04-10T21:56:26.798Z,13.00
2023-04-10T21:58:53.793Z,10.85
2023-04-10T22:01:20.874Z,7.65
2023-04-10T22:03:47.577Z,9.50
2023-04-10T22:06:14.335Z,8.13
2023-04-10T22:08:41.264Z,5.32
2023-04-10T22:11:09.309Z,4.80
2023-04-10T22:13:35.905Z,4.57
2023-04-10T22:16:02.759Z,5.03
2023-04-10T22:18:29.689Z,4.22
2023-04-10T22:20:56.656Z,4.10
2023-04-10T22:23:26.254Z,4.18
2023-04-10T22:25:52.989Z,4.45
2023-04-10T22:28:19.728Z,4.18
2023-04-10T22:30:46.369Z,3.75
2023-04-10T22:33:13.054Z,4.45
2023-04-10T22:35:39.749Z,3.95
2023-04-10T22:38:07.467Z,3.67
2023-04-10T22:40:34.047Z,4.45
2023-04-10T22:43:00.692Z,4.60
2023-04-10T22:45:27.264Z,4.10
2023-04-10T22:47:54.226Z,3.33
2023-04-10T22:50:21.079Z,3.85
2023-04-10T22:52:47.781Z,4.82
2023-04-10T22:55:15.711Z,3.90
2023-04-10T22:57:42.287Z,4.95
2023-04-10T23:00:09.348Z,4.00
2023-04-10T23:02:36.330Z,3.40
2023-04-10T23:05:03.288Z,2.88
2023-04-10T23:07:30.173Z,2.38
2023-04-10T23:09:56.880Z,2.97
2023-04-10T23:12:23.976Z,3.03
2023-04-10T23:14:50.566Z,3.20
2023-04-10T23:17:17.280Z,4.07
2023-04-10T23:19:43.942Z,6.20
2023-04-10T23:22:10.753Z,4.10
2023-04-10T23:24:38.407Z,2.65
2023-04-10T23:27:08.122Z,2.60
2023-04-10T23:29:34.960Z,2.33
2023-04-10T23:32:01.618Z,2.83
2023-04-10T23:34:28.545Z,2.67
2023-04-10T23:36:55.589Z,3.22
2023-04-10T23:39:22.266Z,3.65
2023-04-10T23:41:48.931Z,3.80
2023-04-10T23:44:15.636Z,3.03
2023-04-10T23:46:42.307Z,3.30
2023-04-10T23:49:08.958Z,3.05
2023-04-10T23:51:35.791Z,3.70
2023-04-10T23:54:02.405Z,3.33
2023-04-10T23:56:29.341Z,4.15
2023-04-10T23:58:56.592Z,4.40
